createdAt,value
2018-08-28T00:01:22.874Z,15.90
2018-08-28T00:03:52.198Z,15.90
2018-08-28T00:06:21.337Z,15.80
2018-08-28T00:08:50.511Z,15.70
2018-08-28T00:11:19.457Z,15.60
2018-08-28T00:13:48.451Z,15.50
2018-08-28T00:16:17.405Z,15.40
2018-08-28T00:18:46.285Z,15.40
2018-08-28T00:21:15.191Z,15.40
2018-08-28T00:23:44.120Z,15.40
2018-08-28T00:26:12.999Z,15.40
2018-08-28T00:28:41.875Z,15.40
2018-08-28T00:31:10.783Z,15.50
2018-08-28T00:33:39.646Z,15.70
2018-08-28T00:36:08.480Z,15.70
2018-08-28T00:38:37.410Z,15.90
2018-08-28T00:41:06.321Z,16.00
2018-08-28T00:43:35.203Z,16.10
2018-08-28T00:46:04.116Z,16.20
2018-08-28T00:48:33.001Z,16.30
2018-08-28T00:51:01.854Z,16.30
2018-08-28T00:53:30.748Z,16.40
2018-08-28T00:55:59.633Z,16.40
2018-08-28T00:58:28.520Z,16.50
2018-08-28T01:00:57.456Z,16.60
2018-08-28T01:03:26.313Z,16.60
2018-08-28T01:05:55.194Z,16.70
2018-08-28T01:08:24.091Z,16.70
2018-08-28T01:10:52.988Z,16.70
2018-08-28T01:13:21.857Z,16.70
2018-08-28T01:15:50.750Z,16.50
2018-08-28T01:18:19.613Z,16.40
2018-08-28T01:20:48.507Z,16.40
2018-08-28T01:23:17.376Z,16.10
2018-08-28T01:25:46.300Z,15.90
2018-08-28T01:28:15.218Z,15.80
2018-08-28T01:30:44.087Z,15.70
2018-08-28T01:33:12.960Z,15.70
2018-08-28T01:35:41.800Z,15.60
2018-08-28T01:38:10.711Z,15.60
2018-08-28T01:40:39.569Z,15.60
2018-08-28T01:43:13.647Z,15.70
2018-08-28T01:45:42.482Z,15.80
2018-08-28T01:48:11.350Z,15.80
2018-08-28T01:50:40.189Z,15.80
2018-08-28T01:53:09.118Z,15.80
2018-08-28T01:55:37.980Z,15.80
2018-08-28T01:58:06.911Z,15.80
2018-08-28T02:00:35.746Z,15.80
2018-08-28T02:03:04.596Z,15.80
2018-08-28T02:05:33.487Z,15.80
2018-08-28T02:08:02.367Z,15.90
2018-08-28T02:10:31.240Z,15.80
2018-08-28T02:13:00.216Z,15.80
2018-08-28T02:15:29.083Z,15.80
2018-08-28T02:17:57.964Z,15.80
2018-08-28T02:20:26.891Z,15.80
2018-08-28T02:22:55.764Z,15.80
2018-08-28T02:25:24.635Z,15.80
2018-08-28T02:27:53.632Z,15.90
2018-08-28T02:30:22.487Z,16.00
2018-08-28T02:32:51.433Z,16.00
2018-08-28T02:35:20.356Z,16.10
2018-08-28T02:37:49.237Z,16.20
2018-08-28T02:40:18.105Z,16.30
2018-08-28T02:42:47.035Z,16.40
2018-08-28T02:45:15.917Z,16.50
2018-08-28T02:47:44.825Z,16.50
2018-08-28T02:50:13.754Z,16.50
2018-08-28T02:52:42.623Z,16.50
2018-08-28T02:55:11.535Z,16.50
2018-08-28T02:57:40.354Z,16.60
2018-08-28T03:00:09.264Z,16.60
2018-08-28T03:02:38.194Z,16.60
2018-08-28T03:05:07.133Z,16.60
2018-08-28T03:07:35.978Z,16.60
2018-08-28T03:10:04.924Z,16.60
2018-08-28T03:12:33.754Z,16.60
2018-08-28T03:15:02.693Z,16.60
2018-08-28T03:17:31.555Z,16.50
2018-08-28T03:20:00.389Z,16.50
2018-08-28T03:22:29.314Z,16.50
2018-08-28T03:24:58.239Z,16.50
2018-08-28T03:27:27.136Z,16.50
2018-08-28T03:29:55.999Z,16.50
2018-08-28T03:32:24.873Z,16.50
2018-08-28T03:34:53.855Z,16.50
2018-08-28T03:37:22.767Z,16.50
2018-08-28T03:39:51.637Z,16.50
2018-08-28T03:42:20.520Z,16.50
2018-08-28T03:44:49.428Z,16.60
2018-08-28T03:47:18.268Z,16.60
2018-08-28T03:49:47.123Z,16.70
2018-08-28T03:52:15.990Z,16.70
2018-08-28T03:54:44.927Z,16.80
2018-08-28T03:57:13.777Z,16.80
2018-08-28T03:59:42.647Z,16.70
2018-08-28T04:02:11.525Z,16.80
2018-08-28T04:04:40.413Z,16.80
2018-08-28T04:07:09.291Z,16.80
2018-08-28T04:09:38.182Z,16.80
2018-08-28T04:12:07.032Z,16.80
2018-08-28T04:14:35.924Z,16.90
2018-08-28T04:17:04.857Z,16.90
2018-08-28T04:19:33.779Z,16.80
2018-08-28T04:22:02.617Z,16.80
2018-08-28T04:24:31.522Z,16.80
2018-08-28T04:27:00.424Z,16.90
2018-08-28T04:29:29.393Z,16.80
2018-08-28T04:31:58.274Z,16.80
2018-08-28T04:34:27.108Z,16.80
2018-08-28T04:36:56.000Z,16.90
2018-08-28T04:39:24.882Z,17.00
2018-08-28T04:41:53.819Z,17.10
2018-08-28T04:44:22.654Z,17.20
2018-08-28T04:46:51.506Z,17.40
2018-08-28T04:49:20.340Z,17.50
2018-08-28T04:51:49.315Z,17.60
2018-08-28T04:54:18.202Z,17.60
2018-08-28T04:56:47.090Z,17.70
2018-08-28T04:59:15.921Z,17.80
2018-08-28T05:01:44.762Z,17.90
2018-08-28T05:04:13.618Z,18.00
2018-08-28T05:06:42.444Z,18.10
2018-08-28T05:09:11.295Z,18.20
2018-08-28T05:11:40.137Z,18.30
2018-08-28T05:14:09.055Z,18.30
2018-08-28T05:16:37.935Z,18.30
2018-08-28T05:19:06.861Z,18.40
2018-08-28T05:21:35.881Z,18.50
2018-08-28T05:24:04.829Z,18.60
2018-08-28T05:26:33.652Z,18.70
2018-08-28T05:29:02.552Z,18.80
2018-08-28T05:31:31.378Z,18.90
2018-08-28T05:34:00.270Z,18.90
2018-08-28T05:36:29.169Z,18.90
2018-08-28T05:38:58.102Z,18.90
2018-08-28T05:41:27.016Z,19.10
2018-08-28T05:43:55.866Z,19.20
2018-08-28T05:46:24.759Z,19.30
2018-08-28T05:48:53.583Z,19.50
2018-08-28T05:51:22.724Z,19.60
2018-08-28T05:53:51.591Z,19.60
2018-08-28T05:56:20.556Z,19.50
2018-08-28T05:58:49.443Z,19.50
2018-08-28T06:01:18.387Z,19.60
2018-08-28T06:03:47.392Z,19.70
2018-08-28T06:06:16.252Z,19.80
2018-08-28T06:08:45.533Z,19.70
2018-08-28T06:11:14.407Z,19.90
2018-08-28T06:13:43.404Z,20.00
2018-08-28T06:16:12.352Z,20.10
2018-08-28T06:18:41.241Z,20.20
2018-08-28T06:21:10.177Z,20.40
2018-08-28T06:23:39.039Z,20.50
2018-08-28T06:26:07.953Z,20.90
2018-08-28T06:28:37.612Z,21.20
2018-08-28T06:31:06.489Z,21.40
2018-08-28T06:33:44.869Z,21.70
2018-08-28T06:36:16.340Z,22.00
2018-08-28T06:38:45.399Z,22.10
2018-08-28T06:41:14.608Z,22.10
2018-08-28T06:43:44.158Z,22.00
2018-08-28T06:46:13.584Z,22.10
2018-08-28T06:48:43.072Z,22.10
2018-08-28T06:51:12.228Z,22.10
2018-08-28T06:53:41.119Z,21.80
2018-08-28T06:56:10.924Z,21.70
2018-08-28T06:58:39.809Z,21.70
2018-08-28T07:01:09.093Z,21.50
2018-08-28T07:03:38.072Z,21.20
2018-08-28T07:06:07.217Z,21.00
2018-08-28T07:08:37.129Z,21.00
2018-08-28T07:11:06.383Z,21.20
2018-08-28T07:13:35.552Z,21.20
2018-08-28T07:16:04.576Z,21.10
2018-08-28T07:18:34.730Z,21.10
2018-08-28T07:21:03.620Z,21.00
2018-08-28T07:23:35.009Z,21.20
2018-08-28T07:26:05.673Z,21.40
2018-08-28T07:28:34.723Z,21.50
2018-08-28T07:31:08.584Z,21.70
2018-08-28T07:33:38.515Z,21.90
2018-08-28T07:36:07.445Z,22.00
2018-08-28T07:38:36.296Z,22.10
2018-08-28T07:41:05.321Z,22.30
2018-08-28T07:43:35.503Z,22.30
2018-08-28T07:46:05.330Z,22.30
2018-08-28T07:48:36.050Z,22.30
2018-08-28T07:51:05.036Z,22.50
2018-08-28T07:53:34.143Z,22.50
2018-08-28T07:56:04.194Z,22.60
2018-08-28T07:58:34.431Z,22.80
2018-08-28T08:01:04.504Z,23.20
2018-08-28T08:03:35.514Z,23.40
2018-08-28T08:06:05.226Z,23.20
2018-08-28T08:08:35.550Z,23.20
2018-08-28T08:11:05.859Z,23.30
2018-08-28T08:13:34.737Z,23.30
2018-08-28T08:16:04.474Z,23.40
2018-08-28T08:18:34.167Z,23.20
2018-08-28T08:21:03.084Z,23.10
2018-08-28T08:23:31.971Z,22.90
2018-08-28T08:26:00.871Z,22.60
2018-08-28T08:28:29.841Z,22.40
2018-08-28T08:30:58.771Z,22.50
2018-08-28T08:33:27.749Z,22.70
2018-08-28T08:35:56.708Z,22.80
2018-08-28T08:38:25.612Z,22.80
2018-08-28T08:40:54.487Z,23.00
2018-08-28T08:43:23.473Z,23.20
2018-08-28T08:45:52.546Z,23.30
2018-08-28T08:48:25.736Z,23.60
2018-08-28T08:50:55.422Z,24.10
2018-08-28T08:53:26.533Z,24.40
2018-08-28T08:55:56.920Z,25.70
2018-08-28T08:58:26.052Z,25.90
2018-08-28T09:00:56.266Z,25.90
2018-08-28T09:03:25.157Z,25.50
2018-08-28T09:05:54.163Z,25.00
2018-08-28T09:08:23.334Z,24.80
2018-08-28T09:10:52.238Z,24.60
2018-08-28T09:13:21.237Z,24.30
2018-08-28T09:15:50.253Z,24.30
2018-08-28T09:18:19.312Z,24.40
2018-08-28T09:20:48.335Z,24.50
2018-08-28T09:23:17.296Z,25.60
2018-08-28T09:25:46.177Z,27.00
2018-08-28T09:28:15.393Z,27.80
2018-08-28T09:30:44.499Z,27.70
2018-08-28T09:33:13.556Z,27.20
2018-08-28T09:35:42.502Z,26.50
2018-08-28T09:38:11.443Z,26.80
2018-08-28T09:40:40.409Z,27.10
2018-08-28T09:43:09.360Z,27.10
2018-08-28T09:45:38.430Z,27.20
2018-08-28T09:48:07.384Z,27.50
2018-08-28T09:50:36.475Z,26.90
2018-08-28T09:53:05.493Z,26.30
2018-08-28T09:55:34.894Z,25.90
2018-08-28T09:58:03.896Z,25.40
2018-08-28T10:00:36.975Z,25.30
2018-08-28T10:03:06.463Z,25.40
2018-08-28T10:05:36.072Z,25.80
2018-08-28T10:08:05.010Z,26.30
2018-08-28T10:10:33.913Z,26.50
2018-08-28T10:13:02.781Z,26.20
2018-08-28T10:15:31.700Z,26.10
2018-08-28T10:18:00.548Z,25.90
2018-08-28T10:20:29.428Z,26.00
2018-08-28T10:22:58.396Z,26.30
2018-08-28T10:25:27.278Z,26.70
2018-08-28T10:27:56.117Z,26.90
2018-08-28T10:30:25.162Z,26.90
2018-08-28T10:32:53.961Z,26.90
2018-08-28T10:35:22.885Z,26.80
2018-08-28T10:37:51.821Z,26.70
2018-08-28T10:40:20.751Z,26.10
2018-08-28T10:42:49.683Z,26.00
2018-08-28T10:45:18.552Z,25.90
2018-08-28T10:47:47.459Z,26.20
2018-08-28T10:50:16.396Z,26.50
2018-08-28T10:52:45.373Z,26.00
2018-08-28T10:55:14.285Z,25.60
2018-08-28T10:57:43.197Z,25.60
2018-08-28T11:00:12.150Z,25.60
2018-08-28T11:02:41.139Z,25.30
2018-08-28T11:05:10.102Z,25.10
2018-08-28T11:07:38.994Z,25.00
2018-08-28T11:10:08.379Z,25.00
2018-08-28T11:12:37.199Z,24.90
2018-08-28T11:15:06.139Z,25.00
2018-08-28T11:17:35.028Z,25.50
2018-08-28T11:20:03.940Z,25.90
2018-08-28T11:22:33.643Z,26.10
2018-08-28T11:25:02.547Z,26.70
2018-08-28T11:27:31.683Z,26.70
2018-08-28T11:30:00.687Z,26.30
2018-08-28T11:32:29.537Z,25.70
2018-08-28T11:34:58.464Z,24.90
2018-08-28T11:37:27.465Z,24.60
2018-08-28T11:39:56.324Z,24.40
2018-08-28T11:42:25.270Z,24.40
2018-08-28T11:44:54.274Z,24.60
2018-08-28T11:47:23.166Z,24.60
2018-08-28T11:49:52.261Z,24.90
2018-08-28T11:52:21.156Z,24.90
2018-08-28T11:54:50.105Z,24.30
2018-08-28T11:57:19.044Z,24.30
2018-08-28T11:59:47.999Z,24.40
2018-08-28T12:02:16.869Z,24.70
2018-08-28T12:04:45.764Z,24.80
2018-08-28T12:07:14.648Z,24.80
2018-08-28T12:09:43.657Z,24.90
2018-08-28T12:12:12.527Z,25.00
2018-08-28T12:14:41.428Z,25.00
2018-08-28T12:17:10.325Z,24.90
2018-08-28T12:19:39.209Z,24.80
2018-08-28T12:22:08.072Z,25.00
2018-08-28T12:24:37.018Z,25.00
2018-08-28T12:27:05.977Z,25.00
2018-08-28T12:29:34.934Z,25.20
2018-08-28T12:32:03.839Z,25.50
2018-08-28T12:34:32.791Z,25.60
2018-08-28T12:37:01.715Z,25.40
2018-08-28T12:39:30.630Z,25.20
2018-08-28T12:42:00.275Z,25.30
2018-08-28T12:44:29.112Z,25.50
2018-08-28T12:46:58.065Z,25.80
2018-08-28T12:49:26.926Z,25.60
2018-08-28T12:51:56.025Z,25.60
2018-08-28T12:54:26.117Z,25.50
2018-08-28T12:56:54.984Z,25.40
2018-08-28T12:59:23.846Z,25.40
2018-08-28T13:01:54.542Z,25.50
2018-08-28T13:04:23.440Z,25.40
2018-08-28T13:06:52.417Z,25.40
2018-08-28T13:09:21.309Z,25.40
2018-08-28T13:11:50.227Z,25.20
2018-08-28T13:14:19.372Z,25.20
2018-08-28T13:16:48.243Z,25.10
2018-08-28T13:19:17.162Z,25.10
2018-08-28T13:21:46.065Z,25.00
2018-08-28T13:24:14.950Z,25.00
2018-08-28T13:26:43.787Z,25.00
2018-08-28T13:29:12.700Z,25.00
2018-08-28T13:31:41.553Z,25.00
2018-08-28T13:34:10.607Z,25.20
2018-08-28T13:36:39.556Z,25.40
2018-08-28T13:39:08.650Z,25.40
2018-08-28T13:41:38.313Z,25.20
2018-08-28T13:44:07.551Z,25.00
2018-08-28T13:46:36.390Z,25.00
2018-08-28T13:49:05.352Z,24.70
2018-08-28T13:51:34.357Z,24.60
2018-08-28T13:54:03.258Z,24.60
2018-08-28T13:56:32.203Z,24.00
2018-08-28T13:59:04.092Z,23.90
2018-08-28T14:01:33.143Z,23.90
2018-08-28T14:04:06.724Z,24.00
2018-08-28T14:06:35.788Z,24.00
2018-08-28T14:09:05.872Z,24.00
2018-08-28T14:11:36.982Z,24.00
2018-08-28T14:14:07.209Z,24.00
2018-08-28T14:16:36.176Z,23.90
2018-08-28T14:19:05.176Z,23.90
2018-08-28T14:21:34.036Z,24.00
2018-08-28T14:24:03.120Z,24.00
2018-08-28T14:26:32.053Z,24.10
2018-08-28T14:29:02.632Z,24.10
2018-08-28T14:31:32.016Z,24.00
2018-08-28T14:34:01.123Z,23.80
2018-08-28T14:36:30.204Z,23.70
2018-08-28T14:38:59.113Z,23.60
2018-08-28T14:41:27.999Z,23.60
2018-08-28T14:43:57.001Z,23.60
2018-08-28T14:46:25.923Z,23.60
2018-08-28T14:48:55.461Z,23.50
2018-08-28T14:51:24.373Z,23.40
2018-08-28T14:53:55.022Z,23.50
2018-08-28T14:56:24.022Z,23.60
2018-08-28T14:58:52.935Z,23.60
2018-08-28T15:01:21.826Z,23.50
2018-08-28T15:03:50.674Z,23.50
2018-08-28T15:06:19.601Z,23.50
2018-08-28T15:08:48.463Z,23.60
2018-08-28T15:11:17.396Z,23.50
2018-08-28T15:13:46.368Z,23.30
2018-08-28T15:16:15.386Z,22.90
2018-08-28T15:18:45.626Z,22.70
2018-08-28T15:21:14.677Z,22.60
2018-08-28T15:23:44.968Z,22.70
2018-08-28T15:26:15.215Z,22.70
2018-08-28T15:28:44.171Z,22.70
2018-08-28T15:31:13.831Z,22.70
2018-08-28T15:33:43.667Z,22.70
2018-08-28T15:36:12.653Z,22.60
2018-08-28T15:38:41.615Z,22.40
2018-08-28T15:41:12.514Z,22.50
2018-08-28T15:43:41.466Z,22.50
2018-08-28T15:46:18.309Z,22.40
2018-08-28T15:48:47.285Z,22.30
2018-08-28T15:51:18.503Z,22.20
2018-08-28T15:53:48.763Z,22.20
2018-08-28T15:59:08.139Z,22.20
2018-08-28T16:01:38.260Z,22.20
2018-08-28T16:04:07.325Z,22.10
2018-08-28T16:06:36.193Z,22.10
2018-08-28T16:09:16.611Z,22.00
2018-08-28T16:12:29.150Z,22.00
2018-08-28T16:15:04.759Z,21.90
2018-08-28T16:20:51.642Z,21.80
2018-08-28T16:23:28.214Z,21.70
2018-08-28T16:26:40.019Z,21.60
2018-08-28T16:29:09.359Z,21.60
2018-08-28T16:31:38.268Z,21.50
2018-08-28T16:34:08.986Z,21.50
2018-08-28T16:36:37.886Z,21.50
2018-08-28T16:39:08.182Z,21.50
2018-08-28T16:41:37.487Z,21.50
2018-08-28T16:44:06.727Z,21.40
2018-08-28T16:46:36.099Z,21.40
2018-08-28T16:49:05.139Z,21.30
2018-08-28T16:51:34.144Z,21.20
2018-08-28T16:54:03.564Z,21.10
2018-08-28T16:56:32.588Z,21.00
2018-08-28T16:59:01.549Z,21.00
2018-08-28T17:01:30.583Z,21.00
2018-08-28T17:03:59.673Z,20.90
2018-08-28T17:06:28.559Z,20.80
2018-08-28T17:08:57.622Z,20.80
2018-08-28T17:11:26.598Z,20.80
2018-08-28T17:13:55.515Z,20.70
2018-08-28T17:16:24.707Z,20.70
2018-08-28T17:18:53.639Z,20.50
2018-08-28T17:21:22.517Z,20.40
2018-08-28T17:23:51.403Z,20.30
2018-08-28T17:26:20.319Z,20.30
2018-08-28T17:28:49.161Z,20.30
2018-08-28T17:31:18.139Z,20.30
2018-08-28T17:33:47.090Z,20.20
2018-08-28T17:36:16.016Z,20.20
2018-08-28T17:38:45.000Z,20.10
2018-08-28T17:41:13.828Z,20.00
2018-08-28T17:43:42.765Z,19.80
2018-08-28T17:46:11.702Z,19.70
2018-08-28T17:48:40.590Z,19.70
2018-08-28T17:51:09.497Z,19.60
2018-08-28T17:53:38.458Z,19.50
2018-08-28T17:56:07.343Z,19.40
2018-08-28T17:58:36.253Z,19.30
2018-08-28T18:01:05.309Z,19.10
2018-08-28T18:03:34.237Z,19.00
2018-08-28T18:06:03.123Z,18.90
2018-08-28T18:08:32.230Z,18.80
2018-08-28T18:11:01.114Z,18.70
2018-08-28T18:13:29.973Z,18.60
2018-08-28T18:15:58.944Z,18.50
2018-08-28T18:18:27.809Z,18.50
2018-08-28T18:20:56.718Z,18.40
2018-08-28T18:23:25.612Z,18.30
2018-08-28T18:25:54.508Z,18.20
2018-08-28T18:28:23.405Z,18.20
2018-08-28T18:30:52.418Z,18.10
2018-08-28T18:33:21.333Z,18.10
2018-08-28T18:35:50.248Z,18.00
2018-08-28T18:38:19.275Z,18.00
2018-08-28T18:40:48.299Z,17.90
2018-08-28T18:43:17.192Z,17.90
2018-08-28T18:45:46.196Z,17.80
2018-08-28T18:48:15.118Z,17.80
2018-08-28T18:50:43.985Z,17.70
2018-08-28T18:53:12.911Z,17.60
2018-08-28T18:55:41.822Z,17.50
2018-08-28T18:58:10.784Z,17.40
2018-08-28T19:00:39.773Z,17.30
2018-08-28T19:03:08.731Z,17.30
2018-08-28T19:05:37.605Z,17.20
2018-08-28T19:08:06.505Z,17.20
2018-08-28T19:10:35.495Z,17.10
2018-08-28T19:13:05.279Z,17.20
2018-08-28T19:15:34.177Z,17.20
2018-08-28T19:18:03.223Z,17.10
2018-08-28T19:20:32.242Z,17.10
2018-08-28T19:23:01.243Z,17.10
2018-08-28T19:25:30.175Z,17.10
2018-08-28T19:27:59.049Z,17.10
2018-08-28T19:30:27.972Z,17.00
2018-08-28T19:32:56.889Z,17.00
2018-08-28T19:35:25.759Z,17.00
2018-08-28T19:37:54.702Z,16.90
2018-08-28T19:40:23.595Z,16.90
2018-08-28T19:42:52.527Z,16.90
2018-08-28T19:45:21.428Z,16.90
2018-08-28T19:47:50.328Z,16.80
2018-08-28T19:50:19.246Z,16.70
2018-08-28T19:52:48.123Z,16.60
2018-08-28T19:55:17.612Z,16.50
2018-08-28T19:57:46.518Z,16.50
2018-08-28T20:00:15.507Z,16.40
2018-08-28T20:02:44.493Z,16.30
2018-08-28T20:05:13.412Z,16.20
2018-08-28T20:07:42.337Z,16.20
2018-08-28T20:10:11.237Z,16.20
2018-08-28T20:12:40.142Z,16.20
2018-08-28T20:15:09.133Z,16.20
2018-08-28T20:17:38.096Z,16.10
2018-08-28T20:20:07.521Z,16.00
2018-08-28T20:22:36.607Z,15.90
2018-08-28T20:25:05.827Z,15.90
2018-08-28T20:27:36.118Z,15.80
2018-08-28T20:30:05.150Z,15.80
2018-08-28T20:32:34.059Z,15.80
2018-08-28T20:35:03.481Z,15.80
2018-08-28T20:37:32.438Z,15.80
2018-08-28T20:40:01.377Z,15.70
2018-08-28T20:42:30.339Z,15.70
2018-08-28T20:44:59.369Z,15.70
2018-08-28T20:47:28.312Z,15.60
2018-08-28T20:49:57.315Z,15.60
2018-08-28T20:52:26.445Z,15.60
2018-08-28T20:54:55.512Z,15.50
2018-08-28T20:57:24.529Z,15.40
2018-08-28T20:59:53.379Z,15.30
2018-08-28T21:02:22.324Z,15.30
2018-08-28T21:04:51.651Z,15.20
2018-08-28T21:07:21.181Z,15.20
2018-08-28T21:09:50.083Z,15.30
2018-08-28T21:12:19.228Z,15.20
2018-08-28T21:14:48.129Z,15.20
2018-08-28T21:17:17.036Z,15.10
2018-08-28T21:19:45.908Z,15.10
2018-08-28T21:22:14.829Z,15.10
2018-08-28T21:24:43.733Z,15.00
2018-08-28T21:27:12.584Z,15.00
2018-08-28T21:29:41.513Z,15.00
2018-08-28T21:32:10.508Z,15.00
2018-08-28T21:34:39.435Z,14.90
2018-08-28T21:37:08.300Z,14.90
2018-08-28T21:39:37.179Z,14.80
2018-08-28T21:42:06.219Z,14.80
2018-08-28T21:44:35.244Z,14.80
2018-08-28T21:47:04.179Z,14.70
2018-08-28T21:49:33.119Z,14.70
2018-08-28T21:52:06.260Z,14.70
2018-08-28T21:54:35.142Z,14.70
2018-08-28T21:57:04.155Z,14.70
2018-08-28T21:59:33.062Z,14.70
2018-08-28T22:02:01.971Z,14.70
2018-08-28T22:04:30.872Z,14.70
2018-08-28T22:07:04.967Z,14.70
2018-08-28T22:09:33.823Z,14.70
2018-08-28T22:12:02.792Z,14.70
2018-08-28T22:14:31.695Z,14.70
2018-08-28T22:17:00.616Z,14.60
2018-08-28T22:19:29.613Z,14.70
2018-08-28T22:21:58.715Z,14.70
2018-08-28T22:24:27.691Z,14.70
2018-08-28T22:26:56.639Z,14.60
2018-08-28T22:29:26.280Z,14.50
2018-08-28T22:31:55.390Z,14.50
2018-08-28T22:34:24.328Z,14.40
2018-08-28T22:36:55.291Z,14.30
2018-08-28T22:39:24.179Z,14.30
2018-08-28T22:41:53.242Z,14.20
2018-08-28T22:44:22.497Z,14.20
2018-08-28T22:46:51.361Z,14.10
2018-08-28T22:49:20.223Z,14.10
2018-08-28T22:51:49.350Z,14.10
2018-08-28T22:54:18.349Z,14.10
2018-08-28T22:56:47.255Z,14.00
2018-08-28T22:59:16.168Z,14.00
2018-08-28T23:01:45.045Z,14.00
2018-08-28T23:04:13.963Z,13.90
2018-08-28T23:06:42.893Z,13.90
2018-08-28T23:09:11.814Z,13.90
2018-08-28T23:11:40.744Z,13.80
2018-08-28T23:14:09.612Z,13.80
2018-08-28T23:16:38.550Z,13.80
2018-08-28T23:19:07.479Z,13.80
2018-08-28T23:21:36.335Z,13.80
2018-08-28T23:24:05.336Z,13.80
2018-08-28T23:26:34.207Z,13.70
2018-08-28T23:29:03.092Z,13.70
2018-08-28T23:31:32.028Z,13.70
2018-08-28T23:34:00.967Z,13.70
2018-08-28T23:36:29.948Z,13.70
2018-08-28T23:38:58.905Z,13.60
2018-08-28T23:41:27.825Z,13.60
2018-08-28T23:43:56.721Z,13.60
2018-08-28T23:46:25.585Z,13.60
2018-08-28T23:48:54.465Z,13.70
2018-08-28T23:51:23.311Z,13.70
2018-08-28T23:53:52.165Z,13.70
2018-08-28T23:56:21.169Z,13.60
2018-08-28T23:58:50.111Z,13.60
